Kejimkujik National Park, Canada
Current Conditions -  °F | °C
As of 3:00 PM on Friday 24 Oct 2014 (Local Time) from CYZX Reporting Station
Light Rain Light Rain  
Wind Chill: 55°   Ceiling: 900
Heat Index: 55°   Visibility: 8mi
Dew Point: 54°   Wind: 10mph
Humidity: 94%   Direction: 30°NNE
Pressure: 29.5"   Gusts: NA
Location:  44.37°N, 65.26°W
Report Text: CYZX 241800Z 03009KT 8SM -RA OVC009 13/12 A2950 RMK SF8 WNDY HILL UNAVBL PCPN VRY LGT SLP992
Loading
Personal Weather Stations






























Interactive Weather Map
Tropical Storm Tracking
New forecast layout! Learn more

10-Day Weather Forecast

Advertisements
Track Severe Weather on mobile